Terminal Aerodrome Forecast
Issued by NWS

Home | Current Version | Previous Version | Graphics & Text | Print | Product List | Glossary On
Versions: 1 2 3 4 5 6 7 8 9 10 11 12 13 14 15 16 17 18 19 20 21 22 23 24 25 26 27
727
FTUS45 KGGW 200539
TAFOLF
TAF
KOLF 200539Z 2006/2106 26007KT 6SM BR FEW060
     FM201200 26007KT 4SM BR FEW050
     FM201400 26008KT 6SM BR FEW060
     FM210200 25005KT P6SM FEW060=

USA.gov is the U.S. government's official web portal to all federal, state and local government web resources and services.